Kewadin, Michigan
Current Conditions -  °F | °C
As of 11:35 PM on Wednesday 28 Jan 2015 (Local Time) from KACB Reporting Station
Overcast Overcast  
Wind Chill: 23°   Ceiling: 10000
Heat Index: 30°   Visibility: 10mi
Dew Point: 10°   Wind: 7mph
Humidity: 42%   Direction: 150°SSE
Pressure: 29.97"   Gusts: NA
Location:  44.93°N, 85.37°W
Report Text: KACB 290435Z AUTO 15006KT 10SM OVC100 M01/M12 A2997 RMK AO2 T10111125
Loading
Personal Weather Stations






























Interactive Weather Map New forecast layout! Learn more

10-Day Weather Forecast

Advertisements
Track Severe Weather on mobile